createdAt,value
2022-07-31T00:00:43.583Z,101669.31
2022-07-31T00:03:11.820Z,101669.84
2022-07-31T00:05:41.820Z,101674.53
2022-07-31T00:08:10.879Z,101665.25
2022-07-31T00:10:38.961Z,101673.38
2022-07-31T00:13:08.370Z,101665.63
2022-07-31T00:15:38.359Z,101672.06
2022-07-31T00:18:06.316Z,101673.31
2022-07-31T00:20:34.478Z,101669.56
2022-07-31T00:23:02.368Z,101669.41
2022-07-31T00:25:30.816Z,101669.56
2022-07-31T00:27:58.770Z,101666.84
2022-07-31T00:30:28.070Z,101673.00
2022-07-31T00:32:56.047Z,101666.94
2022-07-31T00:35:24.610Z,101667.66
2022-07-31T00:38:02.200Z,101667.38
2022-07-31T00:40:47.867Z,101658.59
2022-07-31T00:43:16.132Z,101653.41
2022-07-31T00:45:45.758Z,101647.41
2022-07-31T00:48:17.412Z,101650.81
2022-07-31T00:50:46.101Z,101653.41
2022-07-31T00:53:13.997Z,101639.16
2022-07-31T00:55:51.354Z,101642.81
2022-07-31T00:58:20.273Z,101639.78
2022-07-31T01:00:50.001Z,101631.75
2022-07-31T01:03:18.774Z,101636.06
2022-07-31T01:05:46.826Z,101622.63
2022-07-31T01:08:15.039Z,101624.16
2022-07-31T01:10:49.493Z,101633.97
2022-07-31T01:13:25.192Z,101630.31
2022-07-31T01:15:56.574Z,101628.69
2022-07-31T01:18:27.047Z,101635.84
2022-07-31T01:20:59.162Z,101633.00
2022-07-31T01:23:54.853Z,101628.69
2022-07-31T01:26:36.056Z,101631.53
2022-07-31T01:29:22.679Z,101633.66
2022-07-31T01:31:58.048Z,101634.44
2022-07-31T01:34:32.389Z,101639.44
2022-07-31T01:37:07.939Z,101644.63
2022-07-31T01:39:43.307Z,101637.34
2022-07-31T01:42:17.744Z,101637.88
2022-07-31T01:44:51.982Z,101634.75
2022-07-31T01:47:22.675Z,101629.63
2022-07-31T01:49:52.675Z,101635.81
2022-07-31T01:52:22.790Z,101639.13
2022-07-31T01:54:52.167Z,101640.38
2022-07-31T01:57:23.372Z,101638.66
2022-07-31T01:59:55.308Z,101634.88
2022-07-31T02:02:25.525Z,101638.31
2022-07-31T02:04:55.449Z,101638.31
2022-07-31T02:07:24.426Z,101630.72
2022-07-31T02:09:58.800Z,101628.88
2022-07-31T02:12:33.806Z,101630.09
2022-07-31T02:15:05.474Z,101622.00
2022-07-31T02:17:35.053Z,101625.44
2022-07-31T02:20:06.699Z,101626.06
2022-07-31T02:22:35.084Z,101626.47
2022-07-31T02:25:03.352Z,101630.38
2022-07-31T02:27:53.741Z,101627.94
2022-07-31T02:30:22.557Z,101626.47
2022-07-31T02:32:51.188Z,101621.94
2022-07-31T02:35:20.039Z,101623.53
2022-07-31T02:37:53.922Z,101623.03
2022-07-31T02:40:24.524Z,101619.59
2022-07-31T02:42:54.132Z,101617.78
2022-07-31T02:45:24.777Z,101622.59
2022-07-31T02:47:53.074Z,101619.88
2022-07-31T02:50:21.299Z,101624.28
2022-07-31T02:52:49.341Z,101612.00
2022-07-31T02:55:18.520Z,101615.25
2022-07-31T02:57:48.256Z,101610.81
2022-07-31T03:00:22.908Z,101601.50
2022-07-31T03:02:53.896Z,101604.56
2022-07-31T03:05:22.331Z,101603.72
2022-07-31T03:07:50.629Z,101604.19
2022-07-31T03:10:19.122Z,101607.25
2022-07-31T03:12:50.020Z,101608.41
2022-07-31T03:15:19.907Z,101610.22
2022-07-31T03:17:49.235Z,101607.78
2022-07-31T03:20:19.447Z,101615.63
2022-07-31T03:22:47.950Z,101612.47
2022-07-31T03:25:21.270Z,101606.91
2022-07-31T03:27:55.054Z,101607.41
2022-07-31T03:30:25.988Z,101608.53
2022-07-31T03:32:54.301Z,101605.44
2022-07-31T03:35:24.060Z,101610.84
2022-07-31T03:37:52.005Z,101612.22
2022-07-31T03:40:20.072Z,101604.97
2022-07-31T03:42:49.946Z,101598.47
2022-07-31T03:45:20.676Z,101606.56
2022-07-31T03:47:48.870Z,101607.81
2022-07-31T03:50:17.448Z,101603.16
2022-07-31T03:52:48.365Z,101598.47
2022-07-31T03:55:16.524Z,101599.59
2022-07-31T03:57:45.448Z,101600.94
2022-07-31T04:00:17.891Z,101602.50
2022-07-31T04:02:47.104Z,101605.13
2022-07-31T04:05:15.269Z,101600.94
2022-07-31T04:07:43.234Z,101607.22
2022-07-31T04:10:12.873Z,101602.50
2022-07-31T04:12:41.148Z,101611.84
2022-07-31T04:15:09.870Z,101599.19
2022-07-31T04:17:37.807Z,101608.13
2022-07-31T04:20:07.185Z,101608.50
2022-07-31T04:22:35.539Z,101608.00
2022-07-31T04:25:03.555Z,101616.34
2022-07-31T04:27:33.146Z,101619.28
2022-07-31T04:30:01.082Z,101612.09
2022-07-31T04:32:30.986Z,101614.88
2022-07-31T04:34:59.099Z,101613.88
2022-07-31T04:37:27.011Z,101615.34
2022-07-31T04:39:54.941Z,101615.81
2022-07-31T04:42:23.131Z,101612.44
2022-07-31T04:44:52.541Z,101615.69
2022-07-31T04:47:22.024Z,101616.91
2022-07-31T04:49:49.978Z,101622.28
2022-07-31T04:52:18.215Z,101626.91
2022-07-31T04:54:46.189Z,101622.38
2022-07-31T04:57:16.366Z,101628.44
2022-07-31T04:59:59.609Z,101616.34
2022-07-31T05:02:30.176Z,101622.78
2022-07-31T05:04:58.294Z,101611.84
2022-07-31T05:07:28.667Z,101612.81
2022-07-31T05:09:57.229Z,101621.28
2022-07-31T05:12:25.200Z,101612.78
2022-07-31T05:14:53.596Z,101618.63
2022-07-31T05:17:21.684Z,101618.84
2022-07-31T05:19:51.138Z,101619.44
2022-07-31T05:22:19.402Z,101623.88
2022-07-31T05:24:47.285Z,101609.63
2022-07-31T05:27:15.294Z,101603.63
2022-07-31T05:29:43.233Z,101611.59
2022-07-31T05:32:11.445Z,101612.59
2022-07-31T05:34:39.667Z,101601.72
2022-07-31T05:37:09.276Z,101604.94
2022-07-31T05:39:37.250Z,101604.03
2022-07-31T05:42:05.897Z,101607.47
2022-07-31T05:44:34.082Z,101601.59
2022-07-31T05:47:01.981Z,101602.56
2022-07-31T05:49:31.169Z,101603.31
2022-07-31T05:51:59.094Z,101602.31
2022-07-31T05:54:28.437Z,101595.59
2022-07-31T05:56:56.519Z,101599.34
2022-07-31T05:59:24.992Z,101598.06
2022-07-31T06:01:53.390Z,101600.69
2022-07-31T06:04:24.491Z,101593.91
2022-07-31T06:06:52.392Z,101597.50
2022-07-31T06:09:20.354Z,101598.94
2022-07-31T06:11:49.651Z,101605.00
2022-07-31T06:14:17.576Z,101614.97
2022-07-31T06:16:47.783Z,101608.94
2022-07-31T06:19:15.765Z,101616.34
2022-07-31T06:21:43.703Z,101613.28
2022-07-31T06:24:11.619Z,101612.72
2022-07-31T06:26:41.261Z,101608.59
2022-07-31T06:29:12.155Z,101610.34
2022-07-31T06:31:40.111Z,101602.75
2022-07-31T06:34:08.259Z,101601.66
2022-07-31T06:36:36.179Z,101598.78
2022-07-31T06:39:04.410Z,101592.69
2022-07-31T06:41:51.022Z,101592.97
2022-07-31T06:44:21.269Z,101584.84
2022-07-31T06:46:49.894Z,101595.38
2022-07-31T06:49:18.115Z,101596.34
2022-07-31T06:51:46.434Z,101588.81
2022-07-31T06:54:14.369Z,101587.50
2022-07-31T06:56:42.715Z,101589.25
2022-07-31T06:59:10.762Z,101588.81
2022-07-31T07:01:40.068Z,101587.06
2022-07-31T07:04:07.996Z,101591.88
2022-07-31T07:06:36.114Z,101584.38
2022-07-31T07:09:04.146Z,101585.22
2022-07-31T07:11:32.336Z,101586.41
2022-07-31T07:14:00.404Z,101581.66
2022-07-31T07:16:28.373Z,101586.75
2022-07-31T07:18:57.877Z,101590.81
2022-07-31T07:21:26.379Z,101581.63
2022-07-31T07:23:54.284Z,101577.53
2022-07-31T07:26:22.300Z,101582.47
2022-07-31T07:28:50.440Z,101570.88
2022-07-31T07:31:18.338Z,101567.50
2022-07-31T07:33:47.907Z,101571.22
2022-07-31T07:36:22.834Z,101570.38
2022-07-31T07:38:55.113Z,101566.28
2022-07-31T07:41:24.074Z,101571.41
2022-07-31T07:43:52.659Z,101569.34
2022-07-31T07:46:21.697Z,101571.22
2022-07-31T07:48:50.916Z,101568.16
2022-07-31T07:51:22.799Z,101565.56
2022-07-31T07:53:50.825Z,101567.19
2022-07-31T07:56:19.053Z,101564.78
2022-07-31T07:58:49.246Z,101569.88
2022-07-31T08:01:18.108Z,101571.38
2022-07-31T08:03:50.071Z,101556.19
2022-07-31T08:06:21.463Z,101562.19
2022-07-31T08:08:49.442Z,101558.72
2022-07-31T08:11:18.067Z,101559.81
2022-07-31T08:13:50.588Z,101568.53
2022-07-31T08:16:20.381Z,101571.53
2022-07-31T08:18:48.828Z,101564.94
2022-07-31T08:21:20.131Z,101566.22
2022-07-31T08:23:49.619Z,101560.63
2022-07-31T08:26:18.790Z,101559.44
2022-07-31T08:28:50.557Z,101572.41
2022-07-31T08:31:20.052Z,101567.13
2022-07-31T08:33:48.580Z,101575.19
2022-07-31T08:36:16.637Z,101572.81
2022-07-31T08:38:44.709Z,101569.72
2022-07-31T08:41:15.731Z,101572.81
2022-07-31T08:44:01.440Z,101561.97
2022-07-31T08:46:33.665Z,101575.59
2022-07-31T08:49:03.849Z,101570.00
2022-07-31T08:51:50.928Z,101569.31
2022-07-31T08:54:21.904Z,101558.97
2022-07-31T08:56:52.742Z,101559.63
2022-07-31T08:59:22.187Z,101560.88
2022-07-31T09:01:50.494Z,101560.59
2022-07-31T09:04:18.508Z,101549.94
2022-07-31T09:06:46.726Z,101553.56
2022-07-31T09:09:16.831Z,101562.84
2022-07-31T09:11:49.170Z,101554.00
2022-07-31T09:14:28.323Z,101551.94
2022-07-31T09:16:56.880Z,101554.16
2022-07-31T09:19:52.328Z,101551.63
2022-07-31T09:22:22.952Z,101547.16
2022-07-31T09:24:51.125Z,101547.34
2022-07-31T09:27:19.593Z,101547.34
2022-07-31T09:29:49.893Z,101539.31
2022-07-31T09:32:21.312Z,101537.28
2022-07-31T09:34:49.854Z,101538.47
2022-07-31T09:37:19.185Z,101531.97
2022-07-31T09:39:52.314Z,101531.97
2022-07-31T09:42:21.285Z,101522.44
2022-07-31T09:44:52.563Z,101521.72
2022-07-31T09:47:22.996Z,101521.03
2022-07-31T09:49:55.912Z,101523.78
2022-07-31T09:52:24.262Z,101521.41
2022-07-31T09:55:02.198Z,101519.94
2022-07-31T09:57:30.424Z,101518.03
2022-07-31T09:59:59.738Z,101509.44
2022-07-31T10:02:29.742Z,101511.06
2022-07-31T10:04:58.660Z,101506.19
2022-07-31T10:07:32.471Z,101506.78
2022-07-31T10:10:02.361Z,101510.53
2022-07-31T10:12:32.738Z,101499.50
2022-07-31T10:15:06.861Z,101496.56
2022-07-31T10:17:39.763Z,101484.63
2022-07-31T10:20:09.785Z,101494.22
2022-07-31T10:22:45.177Z,101487.84
2022-07-31T10:25:20.746Z,101490.56
2022-07-31T10:27:49.727Z,101484.59
2022-07-31T10:30:19.197Z,101485.50
2022-07-31T10:32:47.395Z,101479.81
2022-07-31T10:35:16.155Z,101471.44
2022-07-31T10:37:54.471Z,101466.19
2022-07-31T10:40:30.719Z,101468.13
2022-07-31T10:43:18.101Z,101458.63
2022-07-31T10:45:51.991Z,101476.88
2022-07-31T10:48:21.148Z,101466.97
2022-07-31T10:50:49.867Z,101466.88
2022-07-31T10:53:19.443Z,101463.09
2022-07-31T10:55:47.721Z,101455.78
2022-07-31T10:58:17.129Z,101452.75
2022-07-31T11:00:45.558Z,101454.25
2022-07-31T11:03:17.418Z,101448.31
2022-07-31T11:06:02.227Z,101452.09
2022-07-31T11:08:42.072Z,101448.97
2022-07-31T11:11:10.528Z,101445.84
2022-07-31T11:13:51.649Z,101442.50
2022-07-31T11:16:20.688Z,101438.41
2022-07-31T11:19:00.019Z,101426.09
2022-07-31T11:21:39.065Z,101425.47
2022-07-31T11:24:14.491Z,101427.19
2022-07-31T11:26:51.972Z,101429.19
2022-07-31T11:29:59.209Z,101427.22
2022-07-31T11:32:24.831Z,101422.72
2022-07-31T11:34:57.289Z,101410.09
2022-07-31T11:37:30.668Z,101415.25
2022-07-31T11:40:15.292Z,101400.63
2022-07-31T11:42:46.160Z,101398.41
2022-07-31T11:45:15.520Z,101395.50
2022-07-31T11:48:10.026Z,101399.44
2022-07-31T11:50:42.581Z,101399.31
2022-07-31T11:53:10.768Z,101392.72
2022-07-31T11:55:46.483Z,101388.53
2022-07-31T11:58:15.331Z,101393.47
2022-07-31T12:00:48.445Z,101392.94
2022-07-31T12:03:17.740Z,101382.84
2022-07-31T12:05:48.825Z,101383.69
2022-07-31T12:08:17.582Z,101387.28
2022-07-31T12:10:46.664Z,101382.31
2022-07-31T12:13:16.395Z,101374.38
2022-07-31T12:15:56.335Z,101371.34
2022-07-31T12:18:26.325Z,101365.16
2022-07-31T12:20:57.836Z,101350.56
2022-07-31T12:23:40.294Z,101351.22
2022-07-31T12:26:12.165Z,101351.63
2022-07-31T12:28:40.312Z,101336.91
2022-07-31T12:31:08.295Z,101334.63
2022-07-31T12:33:43.949Z,101332.84
2022-07-31T12:36:17.713Z,101323.53
2022-07-31T12:38:48.381Z,101318.59
2022-07-31T12:41:17.343Z,101313.50
2022-07-31T12:43:52.032Z,101302.88
2022-07-31T12:46:24.466Z,101308.34
2022-07-31T12:48:52.443Z,101302.34
2022-07-31T12:51:44.807Z,101299.69
2022-07-31T12:54:14.162Z,101296.38
2022-07-31T12:56:44.301Z,101285.28
2022-07-31T12:59:12.409Z,101294.81
2022-07-31T13:01:40.469Z,101292.28
2022-07-31T13:04:18.674Z,101281.69
2022-07-31T13:06:52.096Z,101280.84
2022-07-31T13:09:21.129Z,101279.09
2022-07-31T13:11:51.307Z,101276.16
2022-07-31T13:14:23.559Z,101273.41
2022-07-31T13:16:53.101Z,101273.31
2022-07-31T13:19:21.042Z,101269.13
2022-07-31T13:21:50.419Z,101275.69
2022-07-31T13:24:19.878Z,101270.78
2022-07-31T13:26:51.577Z,101269.41
2022-07-31T13:29:20.601Z,101271.22
2022-07-31T13:31:48.624Z,101263.47
2022-07-31T13:34:16.612Z,101263.97
2022-07-31T13:36:44.518Z,101272.19
2022-07-31T13:39:13.784Z,101267.78
2022-07-31T13:41:42.662Z,101265.41
2022-07-31T13:44:10.662Z,101266.44
2022-07-31T13:46:38.605Z,101265.81
2022-07-31T13:49:10.591Z,101263.91
2022-07-31T13:51:39.504Z,101268.63
2022-07-31T13:54:08.639Z,101260.31
2022-07-31T13:56:42.729Z,101265.44
2022-07-31T13:59:12.722Z,101258.03
2022-07-31T14:02:03.820Z,101252.25
2022-07-31T14:04:32.495Z,101254.72
2022-07-31T14:07:06.046Z,101249.50
2022-07-31T14:09:38.027Z,101243.41
2022-07-31T14:12:08.631Z,101242.28
2022-07-31T14:14:37.662Z,101245.28
2022-07-31T14:17:05.587Z,101247.38
2022-07-31T14:19:41.874Z,101248.22
2022-07-31T14:22:13.275Z,101248.13
2022-07-31T14:24:41.583Z,101254.16
2022-07-31T14:27:20.499Z,101249.84
2022-07-31T14:29:48.570Z,101245.59
2022-07-31T14:32:16.956Z,101241.72
2022-07-31T14:34:44.817Z,101234.91
2022-07-31T14:37:12.808Z,101233.03
2022-07-31T14:39:43.167Z,101222.31
2022-07-31T14:42:12.167Z,101229.19
2022-07-31T14:44:42.566Z,101226.16
2022-07-31T14:47:11.114Z,101232.09
2022-07-31T14:50:09.227Z,101236.06
2022-07-31T14:52:27.834Z,101235.75
2022-07-31T14:54:56.214Z,101237.53
2022-07-31T14:57:24.338Z,101246.41
2022-07-31T14:59:53.790Z,101249.88
2022-07-31T15:02:22.894Z,101250.91
2022-07-31T15:04:51.887Z,101243.81
2022-07-31T15:07:38.476Z,101250.94
2022-07-31T15:10:09.911Z,101262.00
2022-07-31T15:12:38.373Z,101271.88
2022-07-31T15:15:09.078Z,101280.88
2022-07-31T15:17:37.552Z,101287.53
2022-07-31T15:20:06.343Z,101285.88
2022-07-31T15:22:34.299Z,101290.50
2022-07-31T15:25:02.199Z,101293.22
2022-07-31T15:27:30.282Z,101300.56
2022-07-31T15:30:00.492Z,101297.78
2022-07-31T15:32:36.626Z,101302.88
2022-07-31T15:35:05.683Z,101290.75
2022-07-31T15:37:35.377Z,101294.66
2022-07-31T15:40:07.853Z,101298.75
2022-07-31T15:42:40.483Z,101293.75
2022-07-31T15:45:10.776Z,101289.97
2022-07-31T15:47:40.708Z,101287.72
2022-07-31T15:50:11.350Z,101278.34
2022-07-31T15:52:39.856Z,101278.28
2022-07-31T15:55:09.098Z,101275.25
2022-07-31T15:57:37.342Z,101286.16
2022-07-31T16:00:07.643Z,101269.47
2022-07-31T16:02:35.560Z,101281.91
2022-07-31T16:05:12.164Z,101275.63
2022-07-31T16:08:30.765Z,101269.13
2022-07-31T16:10:41.404Z,101260.09
2022-07-31T16:13:09.627Z,101266.38
2022-07-31T16:15:37.880Z,101269.41
2022-07-31T16:18:07.025Z,101273.84
2022-07-31T16:20:38.751Z,101270.94
2022-07-31T16:23:06.823Z,101267.69
2022-07-31T16:25:35.594Z,101263.81
2022-07-31T16:28:04.187Z,101264.50
2022-07-31T16:30:32.407Z,101257.50
2022-07-31T16:33:00.476Z,101256.50
2022-07-31T16:35:28.539Z,101260.41
2022-07-31T16:37:58.273Z,101258.38
2022-07-31T16:40:29.959Z,101250.84
2022-07-31T16:43:01.116Z,101244.53
2022-07-31T16:45:30.044Z,101245.69
2022-07-31T16:47:58.161Z,101252.88
2022-07-31T16:50:26.452Z,101243.78
2022-07-31T16:52:55.272Z,101251.25
2022-07-31T16:55:47.009Z,101239.31
2022-07-31T16:58:14.080Z,101241.22
2022-07-31T17:00:42.314Z,101250.50
2022-07-31T17:04:01.574Z,101250.38
2022-07-31T17:05:58.805Z,101250.97
2022-07-31T17:08:28.935Z,101249.28
2022-07-31T17:10:58.555Z,101247.19
2022-07-31T17:13:26.602Z,101245.00
2022-07-31T17:15:54.678Z,101246.50
2022-07-31T17:18:25.555Z,101245.97
2022-07-31T17:20:56.031Z,101247.19
2022-07-31T17:23:42.795Z,101233.41
2022-07-31T17:26:21.444Z,101234.91
2022-07-31T17:28:50.635Z,101243.88
2022-07-31T17:31:19.332Z,101241.44
2022-07-31T17:33:58.579Z,101244.31
2022-07-31T17:36:29.533Z,101246.84
2022-07-31T17:38:57.798Z,101247.31
2022-07-31T17:41:30.136Z,101251.34
2022-07-31T17:43:58.117Z,101246.94
2022-07-31T17:46:36.309Z,101253.53
2022-07-31T17:49:08.652Z,101258.59
2022-07-31T17:51:40.241Z,101242.78
2022-07-31T17:54:33.089Z,101227.81
2022-07-31T17:57:03.083Z,101239.88
2022-07-31T17:59:37.944Z,101260.06
2022-07-31T18:02:13.155Z,101259.59
2022-07-31T18:04:43.811Z,101241.97
2022-07-31T18:07:31.313Z,101234.44
2022-07-31T18:10:02.147Z,101231.81
2022-07-31T18:12:57.297Z,101238.03
2022-07-31T18:15:35.666Z,101227.63
2022-07-31T18:18:04.488Z,101230.94
2022-07-31T18:20:40.979Z,101227.66
2022-07-31T18:23:10.977Z,101232.19
2022-07-31T18:25:42.951Z,101219.09
2022-07-31T18:28:19.349Z,101230.66
2022-07-31T18:30:47.225Z,101225.34
2022-07-31T18:33:17.428Z,101221.97
2022-07-31T18:35:52.188Z,101231.09
2022-07-31T18:38:21.193Z,101226.81
2022-07-31T18:40:54.867Z,101222.69
2022-07-31T18:43:27.104Z,101220.56
2022-07-31T18:45:55.586Z,101223.28
2022-07-31T18:48:26.864Z,101219.16
2022-07-31T18:51:05.789Z,101217.00
2022-07-31T18:53:34.776Z,101221.44
2022-07-31T18:56:03.171Z,101210.16
2022-07-31T18:58:32.567Z,101211.50
2022-07-31T19:01:00.763Z,101218.06
2022-07-31T19:03:30.691Z,101219.75
2022-07-31T19:05:58.705Z,101210.63
2022-07-31T19:08:26.804Z,101213.50
2022-07-31T19:10:54.666Z,101220.69
2022-07-31T19:13:23.306Z,101211.44
2022-07-31T19:15:54.020Z,101210.06
2022-07-31T19:18:27.932Z,101206.69
2022-07-31T19:21:22.835Z,101201.09
2022-07-31T19:23:44.876Z,101207.50
2022-07-31T19:26:13.124Z,101207.50
2022-07-31T19:28:43.198Z,101210.22
2022-07-31T19:31:13.758Z,101204.41
2022-07-31T19:33:42.005Z,101209.41
2022-07-31T19:36:10.995Z,101212.78
2022-07-31T19:38:40.536Z,101210.13
2022-07-31T19:41:08.442Z,101205.84
2022-07-31T19:43:36.341Z,101203.84
2022-07-31T19:46:11.692Z,101207.13
2022-07-31T19:48:42.265Z,101203.69
2022-07-31T19:51:11.488Z,101206.44
2022-07-31T19:53:39.515Z,101204.59
2022-07-31T19:56:07.813Z,101209.78
2022-07-31T19:58:37.723Z,101199.06
2022-07-31T20:01:06.298Z,101198.22
2022-07-31T20:03:34.607Z,101192.78
2022-07-31T20:06:05.066Z,101191.53
2022-07-31T20:08:33.862Z,101190.53
2022-07-31T20:11:04.108Z,101197.50
2022-07-31T20:13:33.185Z,101198.06
2022-07-31T20:16:01.634Z,101193.78
2022-07-31T20:18:30.630Z,101195.09
2022-07-31T20:21:02.634Z,101196.50
2022-07-31T20:23:34.256Z,101187.38
2022-07-31T20:26:02.963Z,101188.81
2022-07-31T20:28:30.999Z,101191.38
2022-07-31T20:30:59.115Z,101187.66
2022-07-31T20:33:27.367Z,101193.53
2022-07-31T20:35:55.316Z,101181.69
2022-07-31T20:38:24.739Z,101177.59
2022-07-31T20:40:56.163Z,101175.47
2022-07-31T20:43:25.200Z,101177.59
2022-07-31T20:45:54.149Z,101180.72
2022-07-31T20:48:24.660Z,101178.00
2022-07-31T20:50:53.050Z,101165.88
2022-07-31T20:53:22.072Z,101167.03
2022-07-31T20:55:50.653Z,101176.88
2022-07-31T20:58:21.654Z,101173.69
2022-07-31T21:00:50.069Z,101164.28
2022-07-31T21:03:18.911Z,101165.31
2022-07-31T21:05:47.459Z,101162.72
2022-07-31T21:08:15.797Z,101162.16
2022-07-31T21:10:44.088Z,101164.44
2022-07-31T21:13:12.416Z,101160.00
2022-07-31T21:15:45.190Z,101161.88
2022-07-31T21:18:14.264Z,101162.00
2022-07-31T21:20:52.481Z,101153.59
2022-07-31T21:23:22.637Z,101150.91
2022-07-31T21:25:51.410Z,101152.03
2022-07-31T21:28:19.816Z,101154.19
2022-07-31T21:30:49.737Z,101153.59
2022-07-31T21:33:18.632Z,101154.75
2022-07-31T21:35:47.347Z,101154.59
2022-07-31T21:38:16.353Z,101146.75
2022-07-31T21:40:45.320Z,101150.63
2022-07-31T21:43:16.758Z,101159.19
2022-07-31T21:45:55.592Z,101146.22
2022-07-31T21:48:27.998Z,101146.75
2022-07-31T21:50:56.428Z,101149.63
2022-07-31T21:53:25.443Z,101153.03
2022-07-31T21:55:53.395Z,101151.59
2022-07-31T21:58:21.631Z,101145.31
2022-07-31T22:00:50.980Z,101153.13
2022-07-31T22:03:18.896Z,101147.44
2022-07-31T22:06:04.126Z,101155.03
2022-07-31T22:08:32.039Z,101153.44
2022-07-31T22:10:59.979Z,101147.16
2022-07-31T22:13:27.960Z,101148.34
2022-07-31T22:15:59.947Z,101144.75
2022-07-31T22:18:29.458Z,101154.00
2022-07-31T22:20:58.301Z,101146.72
2022-07-31T22:23:27.561Z,101149.63
2022-07-31T22:25:56.292Z,101149.31
2022-07-31T22:28:25.397Z,101148.44
2022-07-31T22:30:54.113Z,101146.72
2022-07-31T22:33:24.308Z,101153.59
2022-07-31T22:35:59.791Z,101155.56
2022-07-31T22:38:30.280Z,101153.09
2022-07-31T22:40:58.875Z,101148.97
2022-07-31T22:44:12.833Z,101139.75
2022-07-31T22:46:15.219Z,101143.28
2022-07-31T22:48:46.355Z,101139.94
2022-07-31T22:51:15.441Z,101144.25
2022-07-31T22:53:44.031Z,101154.13
2022-07-31T22:56:12.099Z,101148.38
2022-07-31T22:58:40.166Z,101161.06
2022-07-31T23:01:08.060Z,101154.78
2022-07-31T23:03:35.989Z,101159.22
2022-07-31T23:06:30.749Z,101153.41
2022-07-31T23:08:54.616Z,101154.13
2022-07-31T23:11:23.624Z,101154.66
2022-07-31T23:13:51.607Z,101162.25
2022-07-31T23:16:20.307Z,101161.22
2022-07-31T23:18:48.594Z,101152.66
2022-07-31T23:21:18.711Z,101163.34
2022-07-31T23:23:49.021Z,101157.22
2022-07-31T23:26:18.472Z,101166.22
2022-07-31T23:28:46.447Z,101158.91
2022-07-31T23:31:14.602Z,101156.75
2022-07-31T23:33:42.877Z,101156.34
2022-07-31T23:36:11.095Z,101156.19
2022-07-31T23:38:40.536Z,101157.47
2022-07-31T23:41:08.998Z,101163.03
2022-07-31T23:43:36.080Z,101157.47
2022-07-31T23:46:04.627Z,101170.31
2022-07-31T23:48:33.005Z,101158.63
2022-07-31T23:51:01.010Z,101166.44
2022-07-31T23:53:28.901Z,101159.03
2022-07-31T23:55:58.283Z,101162.28
2022-07-31T23:58:26.205Z,101154.31
